sensor_id;sensor_type;location;lat;lon;timestamp;P1;durP1;ratioP1;P2;durP2;ratioP2
18046;SDS011;9148;51.454;13.862;2023-04-01T00:00:44;1.17;;;0.50;;
18046;SDS011;9148;51.454;13.862;2023-04-01T00:03:10;0.53;;;0.53;;
18046;SDS011;9148;51.454;13.862;2023-04-01T00:05:36;0.40;;;0.40;;
18046;SDS011;9148;51.454;13.862;2023-04-01T00:08:02;0.30;;;0.30;;
18046;SDS011;9148;51.454;13.862;2023-04-01T00:10:28;0.70;;;0.50;;
18046;SDS011;9148;51.454;13.862;2023-04-01T00:12:54;1.40;;;0.40;;
18046;SDS011;9148;51.454;13.862;2023-04-01T00:15:20;0.73;;;0.50;;
18046;SDS011;9148;51.454;13.862;2023-04-01T00:17:45;1.03;;;0.40;;
18046;SDS011;9148;51.454;13.862;2023-04-01T00:20:11;0.67;;;0.40;;
18046;SDS011;9148;51.454;13.862;2023-04-01T00:22:39;0.83;;;0.50;;
18046;SDS011;9148;51.454;13.862;2023-04-01T00:25:06;0.33;;;0.33;;
18046;SDS011;9148;51.454;13.862;2023-04-01T00:27:32;0.40;;;0.40;;
18046;SDS011;9148;51.454;13.862;2023-04-01T00:29:57;0.30;;;0.30;;
18046;SDS011;9148;51.454;13.862;2023-04-01T00:32:23;0.30;;;0.23;;
18046;SDS011;9148;51.454;13.862;2023-04-01T00:34:50;0.43;;;0.30;;
18046;SDS011;9148;51.454;13.862;2023-04-01T00:37:17;0.60;;;0.40;;
18046;SDS011;9148;51.454;13.862;2023-04-01T00:39:44;1.10;;;0.60;;
18046;SDS011;9148;51.454;13.862;2023-04-01T00:42:11;0.30;;;0.20;;
18046;SDS011;9148;51.454;13.862;2023-04-01T00:44:37;0.37;;;0.30;;
18046;SDS011;9148;51.454;13.862;2023-04-01T00:47:03;0.50;;;0.40;;
18046;SDS011;9148;51.454;13.862;2023-04-01T00:49:30;1.53;;;0.60;;
18046;SDS011;9148;51.454;13.862;2023-04-01T00:52:09;0.40;;;0.40;;
18046;SDS011;9148;51.454;13.862;2023-04-01T00:54:38;0.30;;;0.30;;
18046;SDS011;9148;51.454;13.862;2023-04-01T00:57:15;0.83;;;0.70;;
18046;SDS011;9148;51.454;13.862;2023-04-01T00:59:56;0.63;;;0.30;;
18046;SDS011;9148;51.454;13.862;2023-04-01T01:02:22;0.47;;;0.33;;
18046;SDS011;9148;51.454;13.862;2023-04-01T01:04:49;1.03;;;0.53;;
18046;SDS011;9148;51.454;13.862;2023-04-01T01:15:46;1.80;;;0.60;;
18046;SDS011;9148;51.454;13.862;2023-04-01T01:18:26;1.07;;;0.67;;
18046;SDS011;9148;51.454;13.862;2023-04-01T01:24:17;0.60;;;0.43;;
18046;SDS011;9148;51.454;13.862;2023-04-01T01:29:48;0.27;;;0.27;;
18046;SDS011;9148;51.454;13.862;2023-04-01T01:32:44;0.53;;;0.37;;
18046;SDS011;9148;51.454;13.862;2023-04-01T01:35:43;3.40;;;0.97;;
18046;SDS011;9148;51.454;13.862;2023-04-01T01:38:21;0.20;;;0.20;;
18046;SDS011;9148;51.454;13.862;2023-04-01T01:40:52;0.20;;;0.20;;
18046;SDS011;9148;51.454;13.862;2023-04-01T01:43:22;0.40;;;0.40;;
18046;SDS011;9148;51.454;13.862;2023-04-01T01:45:54;2.80;;;0.30;;
18046;SDS011;9148;51.454;13.862;2023-04-01T01:48:23;0.90;;;0.40;;
18046;SDS011;9148;51.454;13.862;2023-04-01T01:50:51;1.90;;;0.77;;
18046;SDS011;9148;51.454;13.862;2023-04-01T01:53:18;0.33;;;0.33;;
18046;SDS011;9148;51.454;13.862;2023-04-01T01:55:44;1.07;;;0.57;;
18046;SDS011;9148;51.454;13.862;2023-04-01T01:58:14;0.60;;;0.60;;
18046;SDS011;9148;51.454;13.862;2023-04-01T02:00:56;0.67;;;0.30;;
18046;SDS011;9148;51.454;13.862;2023-04-01T02:03:29;0.40;;;0.33;;
18046;SDS011;9148;51.454;13.862;2023-04-01T02:05:59;1.27;;;0.53;;
18046;SDS011;9148;51.454;13.862;2023-04-01T02:08:36;3.20;;;0.57;;
18046;SDS011;9148;51.454;13.862;2023-04-01T02:11:30;0.20;;;0.20;;
18046;SDS011;9148;51.454;13.862;2023-04-01T02:19:21;0.93;;;0.50;;
18046;SDS011;9148;51.454;13.862;2023-04-01T02:22:00;0.60;;;0.30;;
18046;SDS011;9148;51.454;13.862;2023-04-01T02:24:29;2.67;;;0.53;;
18046;SDS011;9148;51.454;13.862;2023-04-01T02:26:56;2.50;;;0.50;;
18046;SDS011;9148;51.454;13.862;2023-04-01T02:29:23;1.77;;;0.90;;
18046;SDS011;9148;51.454;13.862;2023-04-01T02:31:50;0.20;;;0.20;;
18046;SDS011;9148;51.454;13.862;2023-04-01T02:34:18;0.10;;;0.10;;
18046;SDS011;9148;51.454;13.862;2023-04-01T02:36:55;0.20;;;0.20;;
18046;SDS011;9148;51.454;13.862;2023-04-01T02:39:21;0.20;;;0.20;;
18046;SDS011;9148;51.454;13.862;2023-04-01T02:41:47;5.70;;;1.00;;
18046;SDS011;9148;51.454;13.862;2023-04-01T02:44:13;2.10;;;0.50;;
18046;SDS011;9148;51.454;13.862;2023-04-01T02:46:40;1.23;;;0.60;;
18046;SDS011;9148;51.454;13.862;2023-04-01T02:49:06;0.57;;;0.47;;
18046;SDS011;9148;51.454;13.862;2023-04-01T02:51:32;2.63;;;0.57;;
18046;SDS011;9148;51.454;13.862;2023-04-01T02:53:59;1.03;;;0.77;;
18046;SDS011;9148;51.454;13.862;2023-04-01T02:56:25;0.63;;;0.33;;
18046;SDS011;9148;51.454;13.862;2023-04-01T02:58:51;1.93;;;0.80;;
18046;SDS011;9148;51.454;13.862;2023-04-01T03:01:17;0.43;;;0.30;;
18046;SDS011;9148;51.454;13.862;2023-04-01T03:03:43;1.23;;;0.93;;
18046;SDS011;9148;51.454;13.862;2023-04-01T03:06:09;0.43;;;0.43;;
18046;SDS011;9148;51.454;13.862;2023-04-01T03:08:38;0.67;;;0.57;;
18046;SDS011;9148;51.454;13.862;2023-04-01T03:11:04;1.00;;;0.70;;
18046;SDS011;9148;51.454;13.862;2023-04-01T03:13:30;1.07;;;0.47;;
18046;SDS011;9148;51.454;13.862;2023-04-01T03:15:55;0.40;;;0.30;;
18046;SDS011;9148;51.454;13.862;2023-04-01T03:18:21;1.60;;;0.77;;
18046;SDS011;9148;51.454;13.862;2023-04-01T03:20:47;1.30;;;0.83;;
18046;SDS011;9148;51.454;13.862;2023-04-01T03:23:12;0.87;;;0.63;;
18046;SDS011;9148;51.454;13.862;2023-04-01T03:25:38;1.30;;;0.80;;
18046;SDS011;9148;51.454;13.862;2023-04-01T03:28:04;0.90;;;0.70;;
18046;SDS011;9148;51.454;13.862;2023-04-01T03:30:29;0.97;;;0.77;;
18046;SDS011;9148;51.454;13.862;2023-04-01T03:32:56;1.80;;;0.37;;
18046;SDS011;9148;51.454;13.862;2023-04-01T03:35:23;3.50;;;0.80;;
18046;SDS011;9148;51.454;13.862;2023-04-01T03:37:50;0.63;;;0.50;;
18046;SDS011;9148;51.454;13.862;2023-04-01T03:40:18;1.03;;;0.80;;
18046;SDS011;9148;51.454;13.862;2023-04-01T03:42:43;0.53;;;0.47;;
18046;SDS011;9148;51.454;13.862;2023-04-01T03:45:09;0.30;;;0.30;;
18046;SDS011;9148;51.454;13.862;2023-04-01T03:47:36;1.03;;;0.50;;
18046;SDS011;9148;51.454;13.862;2023-04-01T03:50:03;1.23;;;0.50;;
18046;SDS011;9148;51.454;13.862;2023-04-01T03:52:30;0.80;;;0.60;;
18046;SDS011;9148;51.454;13.862;2023-04-01T03:54:56;3.30;;;0.40;;
18046;SDS011;9148;51.454;13.862;2023-04-01T03:57:22;0.40;;;0.40;;
18046;SDS011;9148;51.454;13.862;2023-04-01T03:59:48;0.23;;;0.20;;
18046;SDS011;9148;51.454;13.862;2023-04-01T04:02:13;0.43;;;0.40;;
18046;SDS011;9148;51.454;13.862;2023-04-01T04:04:39;0.20;;;0.20;;
18046;SDS011;9148;51.454;13.862;2023-04-01T04:07:06;0.80;;;0.53;;
18046;SDS011;9148;51.454;13.862;2023-04-01T04:09:31;0.40;;;0.40;;
18046;SDS011;9148;51.454;13.862;2023-04-01T04:11:58;1.43;;;0.63;;
18046;SDS011;9148;51.454;13.862;2023-04-01T04:14:24;0.40;;;0.40;;
18046;SDS011;9148;51.454;13.862;2023-04-01T04:16:50;7.37;;;0.47;;
18046;SDS011;9148;51.454;13.862;2023-04-01T04:19:15;0.53;;;0.47;;
18046;SDS011;9148;51.454;13.862;2023-04-01T04:21:41;0.30;;;0.30;;
18046;SDS011;9148;51.454;13.862;2023-04-01T04:24:07;1.40;;;0.57;;
18046;SDS011;9148;51.454;13.862;2023-04-01T04:26:34;1.50;;;0.47;;
18046;SDS011;9148;51.454;13.862;2023-04-01T04:29:00;0.73;;;0.50;;
18046;SDS011;9148;51.454;13.862;2023-04-01T04:31:26;4.70;;;0.87;;
18046;SDS011;9148;51.454;13.862;2023-04-01T04:33:52;0.47;;;0.43;;
18046;SDS011;9148;51.454;13.862;2023-04-01T04:36:18;2.77;;;0.53;;
18046;SDS011;9148;51.454;13.862;2023-04-01T04:38:45;1.80;;;0.47;;
18046;SDS011;9148;51.454;13.862;2023-04-01T04:41:12;1.10;;;0.47;;
18046;SDS011;9148;51.454;13.862;2023-04-01T04:43:40;1.57;;;0.60;;
18046;SDS011;9148;51.454;13.862;2023-04-01T04:46:07;0.60;;;0.40;;
18046;SDS011;9148;51.454;13.862;2023-04-01T04:48:34;1.30;;;0.60;;
18046;SDS011;9148;51.454;13.862;2023-04-01T04:51:00;0.60;;;0.40;;
18046;SDS011;9148;51.454;13.862;2023-04-01T04:53:27;7.80;;;0.80;;
18046;SDS011;9148;51.454;13.862;2023-04-01T04:55:53;0.40;;;0.40;;
18046;SDS011;9148;51.454;13.862;2023-04-01T04:58:19;2.53;;;1.10;;
18046;SDS011;9148;51.454;13.862;2023-04-01T05:00:45;0.67;;;0.60;;
18046;SDS011;9148;51.454;13.862;2023-04-01T05:03:11;0.60;;;0.40;;
18046;SDS011;9148;51.454;13.862;2023-04-01T05:05:37;1.23;;;0.53;;
18046;SDS011;9148;51.454;13.862;2023-04-01T05:08:03;3.07;;;0.70;;
18046;SDS011;9148;51.454;13.862;2023-04-01T05:10:29;0.50;;;0.47;;
18046;SDS011;9148;51.454;13.862;2023-04-01T05:12:56;6.97;;;0.73;;
18046;SDS011;9148;51.454;13.862;2023-04-01T05:15:22;0.30;;;0.30;;
18046;SDS011;9148;51.454;13.862;2023-04-01T05:17:48;0.63;;;0.50;;
18046;SDS011;9148;51.454;13.862;2023-04-01T05:20:14;2.03;;;0.53;;
18046;SDS011;9148;51.454;13.862;2023-04-01T05:22:41;1.10;;;0.73;;
18046;SDS011;9148;51.454;13.862;2023-04-01T05:25:07;1.40;;;0.97;;
18046;SDS011;9148;51.454;13.862;2023-04-01T05:27:33;0.60;;;0.50;;
18046;SDS011;9148;51.454;13.862;2023-04-01T05:29:58;1.70;;;0.77;;
18046;SDS011;9148;51.454;13.862;2023-04-01T05:32:24;1.27;;;0.90;;
18046;SDS011;9148;51.454;13.862;2023-04-01T05:34:50;1.47;;;0.53;;
18046;SDS011;9148;51.454;13.862;2023-04-01T05:37:16;1.80;;;0.83;;
18046;SDS011;9148;51.454;13.862;2023-04-01T05:39:42;2.90;;;0.63;;
18046;SDS011;9148;51.454;13.862;2023-04-01T05:42:08;0.50;;;0.50;;
18046;SDS011;9148;51.454;13.862;2023-04-01T05:44:34;5.50;;;1.00;;
18046;SDS011;9148;51.454;13.862;2023-04-01T05:47:01;7.30;;;0.97;;
18046;SDS011;9148;51.454;13.862;2023-04-01T05:49:28;1.63;;;0.93;;
18046;SDS011;9148;51.454;13.862;2023-04-01T05:51:53;0.67;;;0.63;;
18046;SDS011;9148;51.454;13.862;2023-04-01T05:54:19;0.77;;;0.60;;
18046;SDS011;9148;51.454;13.862;2023-04-01T05:56:45;1.33;;;0.60;;
18046;SDS011;9148;51.454;13.862;2023-04-01T05:59:11;0.77;;;0.37;;
18046;SDS011;9148;51.454;13.862;2023-04-01T06:01:38;1.20;;;0.67;;
18046;SDS011;9148;51.454;13.862;2023-04-01T06:04:04;1.17;;;1.00;;
18046;SDS011;9148;51.454;13.862;2023-04-01T06:06:30;1.47;;;0.67;;
18046;SDS011;9148;51.454;13.862;2023-04-01T06:08:58;3.37;;;0.77;;
18046;SDS011;9148;51.454;13.862;2023-04-01T06:17:07;2.63;;;0.70;;
18046;SDS011;9148;51.454;13.862;2023-04-01T06:22:51;3.10;;;0.80;;
18046;SDS011;9148;51.454;13.862;2023-04-01T06:26:03;0.43;;;0.43;;
18046;SDS011;9148;51.454;13.862;2023-04-01T06:49:33;0.40;;;0.40;;
18046;SDS011;9148;51.454;13.862;2023-04-01T06:52:40;0.20;;;0.20;;
18046;SDS011;9148;51.454;13.862;2023-04-01T06:55:26;0.23;;;0.23;;
18046;SDS011;9148;51.454;13.862;2023-04-01T06:58:10;1.27;;;1.03;;
18046;SDS011;9148;51.454;13.862;2023-04-01T07:04:01;2.43;;;0.53;;
18046;SDS011;9148;51.454;13.862;2023-04-01T07:06:38;0.60;;;0.40;;
18046;SDS011;9148;51.454;13.862;2023-04-01T07:09:22;7.40;;;0.57;;
18046;SDS011;9148;51.454;13.862;2023-04-01T07:11:53;1.30;;;0.40;;
18046;SDS011;9148;51.454;13.862;2023-04-01T07:14:32;0.97;;;0.80;;
18046;SDS011;9148;51.454;13.862;2023-04-01T07:17:07;1.23;;;0.60;;
18046;SDS011;9148;51.454;13.862;2023-04-01T07:25:02;0.30;;;0.20;;
18046;SDS011;9148;51.454;13.862;2023-04-01T07:27:37;0.60;;;0.60;;
18046;SDS011;9148;51.454;13.862;2023-04-01T07:30:06;0.47;;;0.40;;
18046;SDS011;9148;51.454;13.862;2023-04-01T07:38:19;0.33;;;0.33;;
18046;SDS011;9148;51.454;13.862;2023-04-01T07:40:59;2.80;;;0.63;;
18046;SDS011;9148;51.454;13.862;2023-04-01T07:44:34;2.00;;;1.07;;
18046;SDS011;9148;51.454;13.862;2023-04-01T07:50:37;3.27;;;0.77;;
18046;SDS011;9148;51.454;13.862;2023-04-01T07:56:12;0.80;;;0.40;;
18046;SDS011;9148;51.454;13.862;2023-04-01T07:59:04;1.77;;;0.90;;
18046;SDS011;9148;51.454;13.862;2023-04-01T08:07:17;1.10;;;0.70;;
18046;SDS011;9148;51.454;13.862;2023-04-01T08:12:29;1.50;;;0.57;;
18046;SDS011;9148;51.454;13.862;2023-04-01T08:15:07;1.23;;;0.63;;
18046;SDS011;9148;51.454;13.862;2023-04-01T08:17:56;0.63;;;0.63;;
18046;SDS011;9148;51.454;13.862;2023-04-01T08:20:50;0.97;;;0.83;;
18046;SDS011;9148;51.454;13.862;2023-04-01T08:23:33;1.20;;;0.67;;
18046;SDS011;9148;51.454;13.862;2023-04-01T08:26:18;0.60;;;0.60;;
18046;SDS011;9148;51.454;13.862;2023-04-01T08:31:55;1.93;;;0.90;;
18046;SDS011;9148;51.454;13.862;2023-04-01T08:34:37;0.63;;;0.40;;
18046;SDS011;9148;51.454;13.862;2023-04-01T08:37:12;0.20;;;0.20;;
18046;SDS011;9148;51.454;13.862;2023-04-01T08:39:46;0.73;;;0.60;;
18046;SDS011;9148;51.454;13.862;2023-04-01T08:45:26;0.30;;;0.30;;
18046;SDS011;9148;51.454;13.862;2023-04-01T08:54:33;0.63;;;0.53;;
18046;SDS011;9148;51.454;13.862;2023-04-01T09:05:37;1.27;;;1.17;;
18046;SDS011;9148;51.454;13.862;2023-04-01T09:08:34;0.30;;;0.30;;
18046;SDS011;9148;51.454;13.862;2023-04-01T09:17:51;0.83;;;0.57;;
18046;SDS011;9148;51.454;13.862;2023-04-01T09:30:19;0.27;;;0.27;;
18046;SDS011;9148;51.454;13.862;2023-04-01T09:33:19;2.60;;;0.47;;
18046;SDS011;9148;51.454;13.862;2023-04-01T09:36:30;0.83;;;0.53;;
18046;SDS011;9148;51.454;13.862;2023-04-01T09:39:35;1.30;;;1.10;;
18046;SDS011;9148;51.454;13.862;2023-04-01T09:43:00;0.37;;;0.33;;
18046;SDS011;9148;51.454;13.862;2023-04-01T09:45:37;0.60;;;0.50;;
18046;SDS011;9148;51.454;13.862;2023-04-01T09:48:21;0.60;;;0.43;;
18046;SDS011;9148;51.454;13.862;2023-04-01T09:57:09;0.40;;;0.40;;
18046;SDS011;9148;51.454;13.862;2023-04-01T10:03:45;1.40;;;0.60;;
18046;SDS011;9148;51.454;13.862;2023-04-01T10:07:13;0.57;;;0.40;;
18046;SDS011;9148;51.454;13.862;2023-04-01T10:13:11;0.40;;;0.37;;
18046;SDS011;9148;51.454;13.862;2023-04-01T10:47:05;2.83;;;1.23;;
18046;SDS011;9148;51.454;13.862;2023-04-01T10:49:56;1.03;;;0.40;;
18046;SDS011;9148;51.454;13.862;2023-04-01T10:58:56;0.30;;;0.27;;
18046;SDS011;9148;51.454;13.862;2023-04-01T11:11:35;0.50;;;0.50;;
18046;SDS011;9148;51.454;13.862;2023-04-01T11:14:33;1.60;;;0.30;;
18046;SDS011;9148;51.454;13.862;2023-04-01T11:17:47;0.77;;;0.50;;
18046;SDS011;9148;51.454;13.862;2023-04-01T11:25:59;0.20;;;0.10;;
18046;SDS011;9148;51.454;13.862;2023-04-01T11:29:08;0.30;;;0.23;;
18046;SDS011;9148;51.454;13.862;2023-04-01T11:31:48;0.20;;;0.20;;
18046;SDS011;9148;51.454;13.862;2023-04-01T11:37:23;0.00;;;0.00;;
18046;SDS011;9148;51.454;13.862;2023-04-01T11:40:27;0.60;;;0.40;;
18046;SDS011;9148;51.454;13.862;2023-04-01T11:43:16;0.20;;;0.20;;
18046;SDS011;9148;51.454;13.862;2023-04-01T11:46:30;0.30;;;0.20;;
18046;SDS011;9148;51.454;13.862;2023-04-01T12:09:43;0.40;;;0.35;;
18046;SDS011;9148;51.454;13.862;2023-04-01T12:12:51;2.05;;;0.30;;
18046;SDS011;9148;51.454;13.862;2023-04-01T12:15:43;1.08;;;0.55;;
18046;SDS011;9148;51.454;13.862;2023-04-01T12:30:16;0.40;;;0.40;;
18046;SDS011;9148;51.454;13.862;2023-04-01T12:39:03;0.70;;;0.70;;
18046;SDS011;9148;51.454;13.862;2023-04-01T12:59:32;2.30;;;2.13;;
18046;SDS011;9148;51.454;13.862;2023-04-01T13:02:57;1.53;;;1.37;;
18046;SDS011;9148;51.454;13.862;2023-04-01T13:06:03;1.63;;;0.67;;
18046;SDS011;9148;51.454;13.862;2023-04-01T13:11:35;0.57;;;0.57;;
18046;SDS011;9148;51.454;13.862;2023-04-01T13:14:56;1.90;;;0.80;;
18046;SDS011;9148;51.454;13.862;2023-04-01T13:20:21;0.80;;;0.80;;
18046;SDS011;9148;51.454;13.862;2023-04-01T13:26:42;4.47;;;0.90;;
18046;SDS011;9148;51.454;13.862;2023-04-01T13:35:20;1.03;;;0.83;;
18046;SDS011;9148;51.454;13.862;2023-04-01T13:41:25;2.00;;;0.93;;
18046;SDS011;9148;51.454;13.862;2023-04-01T13:44:37;0.40;;;0.40;;
18046;SDS011;9148;51.454;13.862;2023-04-01T13:47:20;0.40;;;0.40;;
18046;SDS011;9148;51.454;13.862;2023-04-01T13:56:56;2.00;;;0.30;;
18046;SDS011;9148;51.454;13.862;2023-04-01T13:59:58;1.07;;;0.90;;
18046;SDS011;9148;51.454;13.862;2023-04-01T14:14:36;0.10;;;0.10;;
18046;SDS011;9148;51.454;13.862;2023-04-01T14:17:42;2.33;;;1.60;;
18046;SDS011;9148;51.454;13.862;2023-04-01T14:20:24;1.13;;;0.87;;
18046;SDS011;9148;51.454;13.862;2023-04-01T14:23:09;1.07;;;0.90;;
18046;SDS011;9148;51.454;13.862;2023-04-01T14:25:41;1.90;;;1.00;;
18046;SDS011;9148;51.454;13.862;2023-04-01T14:29:02;0.70;;;0.50;;
18046;SDS011;9148;51.454;13.862;2023-04-01T14:35:31;1.00;;;0.77;;
18046;SDS011;9148;51.454;13.862;2023-04-01T14:55:51;1.10;;;0.50;;
18046;SDS011;9148;51.454;13.862;2023-04-01T14:58:43;0.30;;;0.30;;
18046;SDS011;9148;51.454;13.862;2023-04-01T15:04:13;4.13;;;1.07;;
18046;SDS011;9148;51.454;13.862;2023-04-01T15:09:42;2.42;;;2.10;;
18046;SDS011;9148;51.454;13.862;2023-04-01T15:15:31;1.50;;;0.50;;
18046;SDS011;9148;51.454;13.862;2023-04-01T15:18:48;4.25;;;0.80;;
18046;SDS011;9148;51.454;13.862;2023-04-01T15:25:18;0.10;;;0.10;;
18046;SDS011;9148;51.454;13.862;2023-04-01T15:28:08;0.50;;;0.40;;
18046;SDS011;9148;51.454;13.862;2023-04-01T15:37:06;0.60;;;0.30;;
18046;SDS011;9148;51.454;13.862;2023-04-01T15:52:17;1.60;;;0.50;;
18046;SDS011;9148;51.454;13.862;2023-04-01T16:06:30;1.50;;;0.50;;
18046;SDS011;9148;51.454;13.862;2023-04-01T16:15:15;0.90;;;0.80;;
18046;SDS011;9148;51.454;13.862;2023-04-01T16:18:02;0.40;;;0.20;;
18046;SDS011;9148;51.454;13.862;2023-04-01T16:20:54;0.40;;;0.30;;
18046;SDS011;9148;51.454;13.862;2023-04-01T16:23:30;0.70;;;0.37;;
18046;SDS011;9148;51.454;13.862;2023-04-01T16:26:39;0.60;;;0.40;;
18046;SDS011;9148;51.454;13.862;2023-04-01T16:29:56;0.23;;;0.20;;
18046;SDS011;9148;51.454;13.862;2023-04-01T16:33:01;0.30;;;0.30;;
18046;SDS011;9148;51.454;13.862;2023-04-01T16:35:47;0.50;;;0.50;;
18046;SDS011;9148;51.454;13.862;2023-04-01T16:41:00;0.60;;;0.60;;
18046;SDS011;9148;51.454;13.862;2023-04-01T16:46:56;0.70;;;0.70;;
18046;SDS011;9148;51.454;13.862;2023-04-01T16:49:37;1.50;;;0.60;;
18046;SDS011;9148;51.454;13.862;2023-04-01T16:52:21;1.13;;;0.60;;
18046;SDS011;9148;51.454;13.862;2023-04-01T16:55:41;1.77;;;1.30;;
18046;SDS011;9148;51.454;13.862;2023-04-01T16:58:27;1.00;;;0.90;;
18046;SDS011;9148;51.454;13.862;2023-04-01T17:01:06;1.67;;;1.50;;
18046;SDS011;9148;51.454;13.862;2023-04-01T17:03:40;1.53;;;1.17;;
18046;SDS011;9148;51.454;13.862;2023-04-01T17:06:24;3.13;;;1.30;;
18046;SDS011;9148;51.454;13.862;2023-04-01T17:29:56;0.50;;;0.50;;
18046;SDS011;9148;51.454;13.862;2023-04-01T17:32:55;2.43;;;1.27;;
18046;SDS011;9148;51.454;13.862;2023-04-01T17:44:44;0.73;;;0.73;;
18046;SDS011;9148;51.454;13.862;2023-04-01T17:47:31;1.07;;;0.40;;
18046;SDS011;9148;51.454;13.862;2023-04-01T17:58:46;1.17;;;1.07;;
18046;SDS011;9148;51.454;13.862;2023-04-01T18:13:31;2.17;;;1.57;;
18046;SDS011;9148;51.454;13.862;2023-04-01T18:16:42;3.53;;;2.10;;
18046;SDS011;9148;51.454;13.862;2023-04-01T18:20:02;1.87;;;1.37;;
18046;SDS011;9148;51.454;13.862;2023-04-01T18:26:13;4.07;;;2.23;;
18046;SDS011;9148;51.454;13.862;2023-04-01T18:28:58;2.27;;;1.87;;
18046;SDS011;9148;51.454;13.862;2023-04-01T18:31:34;4.17;;;1.80;;
18046;SDS011;9148;51.454;13.862;2023-04-01T18:34:08;2.37;;;1.63;;
18046;SDS011;9148;51.454;13.862;2023-04-01T18:36:53;1.90;;;1.53;;
18046;SDS011;9148;51.454;13.862;2023-04-01T18:39:35;1.73;;;1.40;;
18046;SDS011;9148;51.454;13.862;2023-04-01T18:42:14;2.83;;;1.57;;
18046;SDS011;9148;51.454;13.862;2023-04-01T18:44:56;2.33;;;2.13;;
18046;SDS011;9148;51.454;13.862;2023-04-01T18:48:03;2.40;;;1.90;;
18046;SDS011;9148;51.454;13.862;2023-04-01T18:51:03;3.33;;;2.60;;
18046;SDS011;9148;51.454;13.862;2023-04-01T18:53:45;7.37;;;2.97;;
18046;SDS011;9148;51.454;13.862;2023-04-01T18:56:29;3.63;;;2.23;;
18046;SDS011;9148;51.454;13.862;2023-04-01T18:59:01;3.87;;;2.73;;
18046;SDS011;9148;51.454;13.862;2023-04-01T19:01:57;4.60;;;3.90;;
18046;SDS011;9148;51.454;13.862;2023-04-01T19:04:40;3.80;;;2.43;;
18046;SDS011;9148;51.454;13.862;2023-04-01T19:15:52;6.17;;;3.20;;
18046;SDS011;9148;51.454;13.862;2023-04-01T19:25:39;4.10;;;2.93;;
18046;SDS011;9148;51.454;13.862;2023-04-01T19:30:54;3.47;;;2.00;;
18046;SDS011;9148;51.454;13.862;2023-04-01T19:33:27;4.70;;;2.33;;
18046;SDS011;9148;51.454;13.862;2023-04-01T19:38:53;2.57;;;2.30;;
18046;SDS011;9148;51.454;13.862;2023-04-01T19:42:17;2.03;;;1.67;;
18046;SDS011;9148;51.454;13.862;2023-04-01T19:50:34;2.77;;;1.77;;
18046;SDS011;9148;51.454;13.862;2023-04-01T19:53:15;2.60;;;1.83;;
18046;SDS011;9148;51.454;13.862;2023-04-01T19:56:36;2.00;;;1.80;;
18046;SDS011;9148;51.454;13.862;2023-04-01T20:04:40;1.67;;;1.57;;
18046;SDS011;9148;51.454;13.862;2023-04-01T20:07:21;2.63;;;2.40;;
18046;SDS011;9148;51.454;13.862;2023-04-01T20:10:20;3.60;;;1.73;;
18046;SDS011;9148;51.454;13.862;2023-04-01T20:13:00;3.23;;;1.70;;
18046;SDS011;9148;51.454;13.862;2023-04-01T20:16:03;2.70;;;1.77;;
18046;SDS011;9148;51.454;13.862;2023-04-01T20:26:22;2.67;;;2.00;;
18046;SDS011;9148;51.454;13.862;2023-04-01T20:29:17;3.33;;;2.63;;
18046;SDS011;9148;51.454;13.862;2023-04-01T20:31:57;2.10;;;1.50;;
18046;SDS011;9148;51.454;13.862;2023-04-01T20:37:47;3.50;;;2.63;;
18046;SDS011;9148;51.454;13.862;2023-04-01T20:43:30;5.30;;;2.40;;
18046;SDS011;9148;51.454;13.862;2023-04-01T20:46:19;2.43;;;2.00;;
18046;SDS011;9148;51.454;13.862;2023-04-01T20:49:13;1.43;;;1.27;;
18046;SDS011;9148;51.454;13.862;2023-04-01T20:52:10;2.17;;;1.37;;
18046;SDS011;9148;51.454;13.862;2023-04-01T20:54:59;2.37;;;1.90;;
18046;SDS011;9148;51.454;13.862;2023-04-01T20:58:05;1.17;;;1.07;;
18046;SDS011;9148;51.454;13.862;2023-04-01T21:03:40;2.40;;;1.63;;
18046;SDS011;9148;51.454;13.862;2023-04-01T21:06:39;2.57;;;1.17;;
18046;SDS011;9148;51.454;13.862;2023-04-01T21:12:42;3.00;;;1.70;;
18046;SDS011;9148;51.454;13.862;2023-04-01T21:21:06;1.93;;;1.70;;
18046;SDS011;9148;51.454;13.862;2023-04-01T21:30:19;1.43;;;1.30;;
18046;SDS011;9148;51.454;13.862;2023-04-01T21:36:20;1.73;;;1.47;;
18046;SDS011;9148;51.454;13.862;2023-04-01T21:42:16;1.40;;;1.10;;
18046;SDS011;9148;51.454;13.862;2023-04-01T21:47:44;1.60;;;1.37;;
18046;SDS011;9148;51.454;13.862;2023-04-01T21:50:47;0.83;;;0.83;;
18046;SDS011;9148;51.454;13.862;2023-04-01T21:56:57;1.27;;;1.17;;
18046;SDS011;9148;51.454;13.862;2023-04-01T22:05:22;1.13;;;0.90;;
18046;SDS011;9148;51.454;13.862;2023-04-01T22:11:08;0.93;;;0.80;;
18046;SDS011;9148;51.454;13.862;2023-04-01T22:13:50;1.17;;;0.97;;
18046;SDS011;9148;51.454;13.862;2023-04-01T22:16:37;0.93;;;0.80;;
18046;SDS011;9148;51.454;13.862;2023-04-01T22:22:24;1.10;;;1.00;;
18046;SDS011;9148;51.454;13.862;2023-04-01T22:25:14;1.97;;;1.57;;
18046;SDS011;9148;51.454;13.862;2023-04-01T22:35:57;3.10;;;1.73;;
18046;SDS011;9148;51.454;13.862;2023-04-01T22:38:38;1.30;;;1.17;;
18046;SDS011;9148;51.454;13.862;2023-04-01T22:41:44;1.33;;;1.23;;
18046;SDS011;9148;51.454;13.862;2023-04-01T22:47:24;1.63;;;1.53;;
18046;SDS011;9148;51.454;13.862;2023-04-01T22:50:18;1.97;;;1.30;;
18046;SDS011;9148;51.454;13.862;2023-04-01T22:52:46;4.23;;;1.40;;
18046;SDS011;9148;51.454;13.862;2023-04-01T22:55:28;1.83;;;1.33;;
18046;SDS011;9148;51.454;13.862;2023-04-01T22:58:05;2.53;;;1.40;;
18046;SDS011;9148;51.454;13.862;2023-04-01T23:00:47;2.10;;;1.67;;
18046;SDS011;9148;51.454;13.862;2023-04-01T23:03:36;2.37;;;1.37;;
18046;SDS011;9148;51.454;13.862;2023-04-01T23:06:06;4.17;;;1.77;;
18046;SDS011;9148;51.454;13.862;2023-04-01T23:08:49;1.23;;;1.10;;
18046;SDS011;9148;51.454;13.862;2023-04-01T23:19:36;1.73;;;1.63;;
18046;SDS011;9148;51.454;13.862;2023-04-01T23:22:34;1.37;;;1.10;;
18046;SDS011;9148;51.454;13.862;2023-04-01T23:25:16;1.33;;;1.23;;
18046;SDS011;9148;51.454;13.862;2023-04-01T23:33:19;2.67;;;1.47;;
18046;SDS011;9148;51.454;13.862;2023-04-01T23:35:52;1.23;;;1.10;;
18046;SDS011;9148;51.454;13.862;2023-04-01T23:38:30;1.53;;;1.40;;
18046;SDS011;9148;51.454;13.862;2023-04-01T23:41:03;2.83;;;1.43;;
18046;SDS011;9148;51.454;13.862;2023-04-01T23:43:31;1.20;;;1.17;;
18046;SDS011;9148;51.454;13.862;2023-04-01T23:46:01;2.27;;;1.70;;
18046;SDS011;9148;51.454;13.862;2023-04-01T23:48:42;2.73;;;1.30;;
18046;SDS011;9148;51.454;13.862;2023-04-01T23:51:21;1.23;;;1.13;;
18046;SDS011;9148;51.454;13.862;2023-04-01T23:54:03;1.40;;;1.30;;
18046;SDS011;9148;51.454;13.862;2023-04-01T23:56:51;1.47;;;1.03;;
18046;SDS011;9148;51.454;13.862;2023-04-01T23:59:23;2.03;;;1.03;;
